AirNav   Everest Fuels
 
 330 users online  

75G Rossettie Airport
Manchester, Michigan, USA

GOING TO MANCHESTER?


FAA INFORMATION EFFECTIVE 03 JANUARY 2019

Location

FAA Identifier: 75G
Lat/Long: 42-11-42.3500N / 084-01-51.1000W
42-11.705833N / 084-01.851667W
42.1950972 / -84.0308611
(estimated)
Elevation: 1005 ft. / 306.3 m (surveyed)
Variation: 05W (1985)
From city: 3 miles N of MANCHESTER, MI
Time zone: UTC -5 (UTC -4 during Daylight Saving Time)
Zip code: 48158

Airport Operations

Airport use: Open to the public
Activation date: 02/1976
Control tower: no
ARTCC: CLEVELAND CENTER
FSS: LANSING FLIGHT SERVICE STATION
NOTAMs facility: LAN (NOTAM-D service available)
Attendance: IREG
Wind indicator: yes
Segmented circle: yes
Lights: ACTIVATE LIRL-CTAF.

Airport Communications

CTAF: 122.9
WX ASOS at ARB (13 nm E): PHONE 734-668-7173
WX ASOS at JXN (20 nm W): PHONE 517-768-7506
WX ASOS at ADG (20 nm S): 118.375 (517-265-9089)

Nearby radio navigation aids

VOR radial/distance  VOR name  Freq  Var
JXNr106/19.4JACKSON VOR/DME109.6005W
SVMr240/23.2SALEM VORTAC114.3003W
CRLr292/27.0CARLETON VOR/DME115.7003W
DXOr274/29.5DETROIT VOR/DME113.4006W
LFDr081/33.6LITCHFIELD VOR/DME111.2005W

 
NDB name  Hdg/Dist  Freq  Var  ID
TECUMSEH332/11.623906WTCU - -.-. ..-
ADRIAN012/19.627806WADG .- -.. --.
GROSSE ILE285/39.541907WRYS .-. -.-- ...

Airport Services

Fuel available: UL94
Parking: tiedowns
Airframe service: NONE
Powerplant service: NONE
Bottled oxygen: NONE
Bulk oxygen: NONE

Runway Information

Runway 18/36

Dimensions: 2480 x 100 ft. / 756 x 30 m
Surface: turf, in fair condition
Runway edge lights: low intensity
NSTD LIRL DUE TO SPACING.
Gradient: S
Operational restrictions: MKD WITH 2 FT YELLOW CONES.
RUNWAY 18  RUNWAY 36
Latitude: 42-11.910000N42-11.501667N
Longitude: 084-01.856667W084-01.846667W
Elevation: 968.0 ft.1005.0 ft.
Gradient: 1.5% UP
Traffic pattern: leftright
Runway heading: 184 magnetic, 179 true004 magnetic, 359 true
Displaced threshold: no365 ft.
Markings: NSTDNSTD
Runway end identifier lights: nono
Obstructions: 36 ft. trees, 727 ft. from runway, 20:1 slope to clear12 ft. road, 25 ft. from runway, 2:1 slope to clear
APCH RATIO 20:1 AT DTHR; DTHR EST -5 FT BLW THR.

Airport Ownership and Management from official FAA records

Ownership: Privately-owned
Owner: ALICE G. ROSSETTIE
8875 CHELSEA RD
MANCHESTER, MI 48158
Phone 734-428-8954
Manager: ALICE G. ROSSETTIE
ROSSETTIE AIRPORT INC, 8875 CHELSEA RD
MANCHESTER, MI 48158
Phone 734-428-8954

Airport Operational Statistics

Aircraft based on the field: 15
Single engine airplanes: 7
Gliders airplanes: 2
Ultralights: 6
    
Aircraft operations: avg 42/month *
60% local general aviation
40% transient general aviation
* for 12-month period ending 31 December 2017

Additional Remarks

FIELD GETS MUDDY IN SPRING.
RY ON ROLLING TERRAIN.
FOR CD CTC DETROIT APCH AT 800-499-8181.
BIRDS AND DEER ON AND INVOF RWY.
FOR RWY CONDITIONS WHEN SNOWING CTC AMGR.
OPPOSITE RWY END NOT VISIBLE FROM THR.

Instrument Procedures

There are no published instrument procedures at 75G.

Some nearby airports with instrument procedures:

KARB - Ann Arbor Municipal Airport (13 nm E)
KJXN - Jackson County Airport-Reynolds Field (20 nm W)
KADG - Lenawee County Airport (20 nm S)
KYIP - Willow Run Airport (22 nm E)
Y47 - Oakland Southwest Airport (26 nm NE)
 
Loc | Ops | Rwys | IFR | FBO | Links
Com | Nav | Svcs | Stats | Notes
Area around 75G (Rossettie Airport)
 
Road maps at: MapQuest Bing Google
 
Aerial photo
WARNING: Photo may not be current or correct
Aerial photo of 75G (Rossettie Airport)
Photo by Evan Nau

Do you have a better or more recent aerial photo of Rossettie Airport that you would like to share? If so, please send us your photo.

 
Sectional chart

 
Airport distance calculator
Flying to Rossettie Airport? Find the distance to fly.

From to 75G

Sunrise and sunset
Times for 23-Jan-2019
 Local
(UTC-5)
 Zulu
(UTC)
Morning civil twilight07:2812:28
Sunrise07:5812:58
Sunset17:3822:38
Evening civil twilight18:0823:08

Current date and time
Zulu (UTC)  23-Jan-2019 07:49:15
Local (UTC-5)  23-Jan-2019 02:49:15
 
METAR
KARB 
13nm E 
734-668-7173
230725Z AUTO 15005KT 5SM -FZRA BR BKN005 BKN015 OVC043 01/00 A2993 RMK AO2 P0001 I1001 T00060000 $
KJXN 
20nm W 
230704Z AUTO 17006KT 4SM BR BKN008 BKN015 OVC026 02/01 A2991 RMK AO2 UPE0657 P0000 T00170011
KADG 
20nm S 
230731Z AUTO 17009KT 2SM UP BR FEW024 BKN030 OVC045 M01/M01 A2994 RMK AO2 UPB19FZRAE19 P0009 I1001 T10061011 TSNO
KYIP 
22nm E 
230653Z 17007KT 6SM -RA BR OVC039 02/M01 A2995 RMK AO2 RAB48FZRAE48 SLP149 P0021 I1000 T00171006 $
KOZW 
25nm N 
230735Z AUTO 18005KT 5SM UP OVC008 01/00 A2991 RMK AO2 T00090000
TAF
KJXN 
20nm W 
230530Z 2306/2406 18009KT 4SM -SHRA BR OVC015 FM230700 18008KT 4SM -SHRA BR OVC008 FM231800 19010KT 4SM -DZ BR OVC004 FM232300 27010G18KT 4SM -FZDZ BR OVC008
KYIP 
22nm E 
230527Z 2306/2406 17006KT 2SM -FZRA BR OVC022 WS015/21040KT FM230900 16009KT 3SM RA BR OVC015 FM231300 19012KT 2SM -SHRA BR BKN008 OVC018 FM232100 24012G20KT P6SM OVC015 FM240300 27010KT P6SM BKN028
NOTAMs
Click for the latest NOTAMs
NOTAMs are issued by the DoD/FAA and will open in a separate window not controlled by AirNav.

 

 
 

Would you like to see your business listed on this page?

 If your business provides an interesting product or service to pilots, flight crews, aircraft, or users of the Rossettie Airport, you should consider listing it here.  To start the listing process, click on the button below
 
Add a business
 

Other Pages about Rossettie Airport

Page from the Michigan Airport Directory (PDF)
 
Update a link
 
Copyright © AirNav, LLC. All rights reserved. Privacy Policy  Contact